Time;durP1;ratioP1;P1;durP2;ratioP2;P2;SDS_P1;SDS_P2;PMS_P1;PMS_P2;Temp;Humidity;BMP_temperature;BMP_pressure;BME280_temperature;BME280_humidity;BME280_pressure;Samples;Min_cycle;Max_cycle;Signal;HPM_P1;HPM_P2
2023/04/26 00:01:05;;;;;;;3.25;2.63;;;7.80;52.60;;;;;;5037157;28;20038;-45
2023/04/26 00:03:32;;;;;;;2.80;2.40;;;7.70;52.90;;;;;;5030516;28;20095;-44
2023/04/26 00:06:04;;;;;;;2.80;2.42;;;7.70;52.70;;;;;;5031860;28;20056;-46
2023/04/26 00:08:39;;;;;;;5.03;3.20;;;7.70;52.90;;;;;;5045402;28;20555;-43
2023/04/26 00:11:05;;;;;;;5.22;2.65;;;7.60;53.10;;;;;;5032250;28;20065;-45
2023/04/26 00:13:35;;;;;;;4.22;3.15;;;7.60;53.00;;;;;;5033059;28;20037;-44
2023/04/26 00:16:08;;;;;;;3.95;3.20;;;7.50;53.00;;;;;;5041649;28;20071;-46
2023/04/26 00:18:36;;;;;;;3.90;2.65;;;7.50;53.10;;;;;;5029876;28;20125;-45
2023/04/26 00:21:05;;;;;;;5.25;3.60;;;7.50;53.10;;;;;;5030388;28;20037;-44
2023/04/26 00:23:35;;;;;;;5.72;3.90;;;7.50;53.20;;;;;;5033970;28;20580;-47
2023/04/26 00:26:02;;;;;;;5.03;3.53;;;7.40;53.40;;;;;;5045633;28;20120;-44
2023/04/26 00:28:35;;;;;;;5.47;3.13;;;7.40;53.40;;;;;;5037592;28;20069;-46
2023/04/26 00:31:02;;;;;;;4.30;3.65;;;7.40;53.50;;;;;;5038332;28;20044;-48
2023/04/26 00:33:31;;;;;;;7.10;3.50;;;7.40;53.40;;;;;;5048833;28;20036;-44
2023/04/26 00:35:57;;;;;;;4.82;2.85;;;7.30;53.30;;;;;;5049471;28;20052;-48
2023/04/26 00:38:27;;;;;;;3.67;3.03;;;7.30;53.40;;;;;;5042064;28;20082;-46
2023/04/26 00:40:58;;;;;;;4.93;3.20;;;7.30;53.60;;;;;;5032568;28;20473;-45
2023/04/26 00:43:25;;;;;;;4.07;3.23;;;7.20;53.60;;;;;;5042439;28;20116;-45
2023/04/26 00:45:55;;;;;;;4.85;3.13;;;7.20;53.50;;;;;;5041636;28;20041;-44
2023/04/26 00:48:22;;;;;;;4.20;3.22;;;7.20;53.70;;;;;;5064207;28;20128;-45
2023/04/26 00:50:51;;;;;;;5.22;2.58;;;7.10;53.60;;;;;;5041950;28;20038;-45
2023/04/26 00:53:19;;;;;;;3.53;2.45;;;7.10;53.60;;;;;;5039890;28;20041;-49
2023/04/26 00:55:50;;;;;;;2.90;2.53;;;7.10;53.70;;;;;;5034144;28;20045;-49
2023/04/26 00:58:22;;;;;;;3.38;2.83;;;7.00;53.80;;;;;;5058744;28;20047;-48
2023/04/26 01:00:50;;;;;;;2.55;2.35;;;7.00;53.80;;;;;;5027179;28;20041;-47
2023/04/26 01:03:17;;;;;;;4.03;2.60;;;7.00;53.80;;;;;;5030389;28;20071;-45
2023/04/26 01:05:47;;;;;;;2.53;2.05;;;7.00;54.50;;;;;;5035364;28;20079;-43
2023/04/26 01:08:19;;;;;;;3.33;2.10;;;6.90;53.90;;;;;;5046047;28;20045;-46
2023/04/26 01:10:47;;;;;;;;;;;6.90;53.90;;;;;;5025161;28;20088;-44
2023/04/26 01:13:28;;;;;;;3.47;1.92;;;6.90;54.40;;;;;;5048577;28;19920;-44
2023/04/26 01:15:55;;;;;;;3.33;2.60;;;6.90;53.50;;;;;;5043984;28;20098;-44
2023/04/26 01:18:22;;;;;;;2.58;2.00;;;6.80;53.70;;;;;;5045727;28;20057;-47
2023/04/26 01:20:51;;;;;;;3.08;2.28;;;6.80;53.90;;;;;;5043331;28;20044;-43
2023/04/26 01:23:22;;;;;;;3.15;2.47;;;6.80;54.00;;;;;;5047601;28;20552;-45
2023/04/26 01:25:55;;;;;;;4.80;2.70;;;6.80;54.10;;;;;;5031948;28;20084;-44
2023/04/26 01:28:24;;;;;;;4.53;2.63;;;6.70;54.30;;;;;;5027014;28;20045;-44
2023/04/26 01:30:51;;;;;;;3.72;2.80;;;6.70;54.20;;;;;;5036068;28;20053;-44
2023/04/26 01:33:21;;;;;;;2.75;2.38;;;6.70;54.30;;;;;;5033024;28;20049;-44
2023/04/26 01:35:50;;;;;;;2.65;2.38;;;6.70;54.50;;;;;;5037921;28;20128;-45
2023/04/26 01:38:20;;;;;;;6.28;2.65;;;6.60;54.30;;;;;;5028291;28;20045;-45
2023/04/26 01:40:46;;;;;;;3.90;3.00;;;6.60;54.40;;;;;;5028025;28;20041;-44
2023/04/26 01:43:14;;;;;;;3.35;2.30;;;6.60;54.50;;;;;;5035093;28;20049;-44
2023/04/26 01:45:41;;;;;;;4.75;2.55;;;6.60;54.50;;;;;;5042306;28;20440;-44
2023/04/26 01:48:26;;;;;;;4.63;2.63;;;6.50;54.50;;;;;;5029170;28;20052;-44
2023/04/26 01:50:54;;;;;;;4.78;2.97;;;6.50;54.40;;;;;;5028824;28;20049;-45
2023/04/26 01:53:21;;;;;;;4.50;2.88;;;6.50;54.50;;;;;;5040604;28;20065;-47
2023/04/26 01:55:54;;;;;;;2.88;2.22;;;6.50;54.60;;;;;;5030195;28;20041;-45
2023/04/26 01:58:23;;;;;;;3.90;2.92;;;6.50;54.70;;;;;;5035430;28;20064;-48
2023/04/26 02:00:52;;;;;;;5.05;2.90;;;6.40;54.80;;;;;;5037073;28;20045;-45
2023/04/26 02:03:24;;;;;;;2.97;2.65;;;6.40;54.70;;;;;;5029409;28;20506;-46
2023/04/26 02:05:51;;;;;;;2.55;2.30;;;6.40;54.70;;;;;;5050079;28;20049;-44
2023/04/26 02:08:17;;;;;;;3.85;3.00;;;6.40;54.70;;;;;;5029845;28;20057;-45
2023/04/26 02:10:49;;;;;;;4.88;2.42;;;6.30;54.70;;;;;;5016273;28;20037;-44
2023/04/26 02:13:24;;;;;;;3.35;2.53;;;6.30;54.80;;;;;;5043546;28;20497;-43
2023/04/26 02:16:05;;;;;;;3.22;2.53;;;6.30;54.90;;;;;;5049764;28;20144;-43
2023/04/26 02:18:41;;;;;;;2.55;2.35;;;6.30;55.30;;;;;;5047780;28;20041;-49
2023/04/26 02:21:09;;;;;;;3.38;2.35;;;6.30;55.00;;;;;;5033326;28;20410;-45
2023/04/26 02:23:36;;;;;;;3.88;3.00;;;6.30;55.00;;;;;;5043779;28;20044;-44
2023/04/26 02:26:03;;;;;;;3.38;2.40;;;6.20;55.00;;;;;;5042529;28;20523;-47
2023/04/26 02:28:34;;;;;;;6.88;2.97;;;6.20;55.00;;;;;;5016520;28;20118;-44
2023/04/26 02:31:01;;;;;;;3.75;2.92;;;6.20;55.10;;;;;;5041068;28;20049;-44
2023/04/26 02:33:33;;;;;;;3.97;2.97;;;6.20;55.20;;;;;;5035985;28;20044;-47
2023/04/26 02:36:04;;;;;;;3.70;2.63;;;6.20;55.20;;;;;;5023741;28;20716;-44
2023/04/26 02:38:37;;;;;;;4.10;3.15;;;6.10;55.40;;;;;;5023358;28;20039;-44
2023/04/26 02:41:04;;;;;;;4.85;2.85;;;6.10;55.40;;;;;;5037783;28;20098;-43
2023/04/26 02:43:35;;;;;;;5.07;2.97;;;6.10;55.30;;;;;;5026426;28;20132;-45
2023/04/26 02:46:01;;;;;;;6.28;3.38;;;6.10;55.30;;;;;;5035671;28;20041;-47
2023/04/26 02:48:30;;;;;;;5.40;3.60;;;6.00;55.40;;;;;;5047320;28;20068;-45
2023/04/26 02:50:56;;;;;;;8.43;4.15;;;6.00;55.40;;;;;;5039096;28;20408;-45
2023/04/26 02:53:23;;;;;;;5.30;3.22;;;6.00;55.50;;;;;;5023057;28;20043;-44
2023/04/26 02:55:54;;;;;;;4.97;3.55;;;6.00;56.10;;;;;;5031503;28;20129;-47
2023/04/26 02:58:22;;;;;;;4.72;3.78;;;5.90;56.00;;;;;;5028747;28;20045;-44
2023/04/26 03:00:57;;;;;;;3.47;3.17;;;5.90;55.40;;;;;;5033101;28;20049;-47
2023/04/26 03:03:29;;;;;;;5.28;3.58;;;5.90;55.50;;;;;;5038364;28;20053;-45
2023/04/26 03:05:59;;;;;;;5.10;3.35;;;5.90;55.40;;;;;;5028235;28;20128;-44
2023/04/26 03:08:26;;;;;;;3.95;3.10;;;5.90;55.50;;;;;;5040970;28;20049;-46
2023/04/26 03:10:57;;;;;;;4.65;3.55;;;5.90;55.60;;;;;;5032346;28;20571;-43
2023/04/26 03:13:29;;;;;;;7.10;3.70;;;5.90;55.80;;;;;;5030370;28;20527;-44
2023/04/26 03:15:58;;;;;;;5.68;3.78;;;5.80;55.50;;;;;;5030711;28;20577;-45
2023/04/26 03:18:31;;;;;;;5.28;3.65;;;5.80;55.60;;;;;;5013922;28;20037;-44
2023/04/26 03:21:03;;;;;;;5.03;3.30;;;5.80;55.70;;;;;;5028852;28;20424;-45
2023/04/26 03:23:34;;;;;;;3.97;2.92;;;5.80;55.60;;;;;;5047055;28;20065;-43
2023/04/26 03:26:07;;;;;;;3.75;3.05;;;5.80;55.80;;;;;;5023580;28;20052;-44
2023/04/26 03:28:34;;;;;;;6.50;3.85;;;5.70;55.70;;;;;;5036081;28;20042;-44
2023/04/26 03:31:01;;;;;;;5.28;3.60;;;5.70;55.80;;;;;;5020851;28;20079;-44
2023/04/26 03:33:30;;;;;;;6.40;4.35;;;5.70;55.80;;;;;;5034553;28;20521;-43
2023/04/26 03:36:00;;;;;;;4.07;3.50;;;5.70;55.90;;;;;;5040368;28;20476;-45
2023/04/26 03:38:29;;;;;;;7.55;4.55;;;5.70;55.90;;;;;;5037246;28;20140;-45
2023/04/26 03:40:56;;;;;;;7.90;4.10;;;5.70;56.00;;;;;;5055114;28;20098;-45
2023/04/26 03:43:25;;;;;;;6.20;3.67;;;5.60;55.90;;;;;;5034927;28;20045;-45
2023/04/26 03:45:52;;;;;;;4.38;3.97;;;5.60;56.00;;;;;;5043370;28;20090;-44
2023/04/26 03:48:19;;;;;;;6.30;4.20;;;5.60;56.00;;;;;;5032809;28;20041;-44
2023/04/26 03:50:49;;;;;;;7.00;4.25;;;5.60;56.00;;;;;;5045976;28;20037;-44
2023/04/26 03:53:15;;;;;;;5.32;3.40;;;5.60;56.20;;;;;;5027539;28;20052;-46
2023/04/26 03:55:47;;;;;;;5.07;3.85;;;5.60;56.80;;;;;;5031826;28;20476;-43
2023/04/26 03:58:14;;;;;;;7.10;4.30;;;5.50;56.10;;;;;;5049317;28;20041;-46
2023/04/26 04:00:54;;;;;;;8.32;4.50;;;5.60;56.20;;;;;;5056471;28;20409;-43
2023/04/26 04:03:29;;;;;;;7.47;3.75;;;5.50;56.10;;;;;;5050197;28;20073;-44
2023/04/26 04:05:56;;;;;;;5.28;3.60;;;5.50;56.10;;;;;;5037926;28;20107;-48
2023/04/26 04:08:22;;;;;;;6.00;4.00;;;5.50;56.20;;;;;;5046024;28;20052;-44
2023/04/26 04:10:52;;;;;;;7.15;4.10;;;5.50;56.30;;;;;;5031360;28;20148;-44
2023/04/26 04:13:19;;;;;;;8.80;4.30;;;5.50;56.40;;;;;;5041587;28;20033;-44
2023/04/26 04:15:48;;;;;;;7.03;3.92;;;5.40;56.30;;;;;;5032655;28;20528;-44
2023/04/26 04:18:15;;;;;;;6.13;3.97;;;5.50;56.40;;;;;;5029476;28;20045;-46
2023/04/26 04:20:48;;;;;;;9.43;4.10;;;5.40;56.30;;;;;;5025074;28;20521;-45
2023/04/26 04:23:17;;;;;;;7.32;4.45;;;5.40;56.30;;;;;;5020921;28;20052;-44
2023/04/26 04:25:50;;;;;;;5.13;4.05;;;5.40;56.60;;;;;;5043355;28;20067;-45
2023/04/26 04:28:18;;;;;;;6.20;4.50;;;5.40;56.40;;;;;;5050050;28;20045;-44
2023/04/26 04:30:46;;;;;;;8.30;4.63;;;5.40;56.50;;;;;;5032433;28;20037;-44
2023/04/26 04:33:16;;;;;;;8.77;5.50;;;5.50;56.60;;;;;;5028012;28;20056;-45
2023/04/26 04:35:44;;;;;;;4.90;4.07;;;5.40;56.70;;;;;;5039801;28;20045;-46
2023/04/26 04:38:17;;;;;;;8.55;4.30;;;5.40;56.70;;;;;;5015734;28;20046;-47
2023/04/26 04:40:53;;;;;;;6.20;4.70;;;5.40;56.80;;;;;;5034783;28;20128;-44
2023/04/26 04:43:26;;;;;;;6.07;4.75;;;5.40;56.80;;;;;;5037891;28;20045;-43
2023/04/26 04:45:54;;;;;;;6.95;5.43;;;5.40;56.90;;;;;;5033457;28;20045;-44
2023/04/26 04:48:21;;;;;;;7.28;4.78;;;5.40;56.90;;;;;;5031602;28;20045;-46
2023/04/26 04:50:50;;;;;;;8.70;5.18;;;5.50;57.10;;;;;;5033038;28;20059;-45
2023/04/26 04:53:16;;;;;;;8.88;4.72;;;5.50;57.20;;;;;;5044575;28;20040;-47
2023/04/26 04:55:43;;;;;;;7.85;4.25;;;5.50;57.30;;;;;;5051720;28;20041;-44
2023/04/26 04:58:13;;;;;;;8.70;5.07;;;5.50;57.30;;;;;;5044188;28;20037;-44
2023/04/26 05:00:40;;;;;;;5.97;4.63;;;5.50;57.30;;;;;;5036129;28;20068;-43
2023/04/26 05:03:14;;;;;;;8.60;4.97;;;5.50;57.30;;;;;;5027883;28;20460;-47
2023/04/26 05:05:41;;;;;;;7.05;5.25;;;5.60;57.40;;;;;;5031420;28;20411;-46
2023/04/26 05:08:08;;;;;;;8.48;4.65;;;5.60;57.50;;;;;;5041037;28;20056;-49
2023/04/26 05:10:35;;;;;;;10.90;5.88;;;5.60;57.60;;;;;;5031600;28;20123;-43
2023/04/26 05:13:02;;;;;;;8.07;5.00;;;5.70;57.80;;;;;;5044914;28;20049;-44
2023/04/26 05:15:29;;;;;;;8.55;5.20;;;5.70;57.80;;;;;;5053173;28;20148;-44
2023/04/26 05:17:56;;;;;;;9.32;5.00;;;5.70;58.00;;;;;;5038374;28;20041;-44
2023/04/26 05:20:24;;;;;;;9.68;4.82;;;5.70;58.00;;;;;;5034182;28;20040;-45
2023/04/26 05:22:51;;;;;;;8.13;4.70;;;5.80;58.10;;;;;;5052742;28;20049;-43
2023/04/26 05:25:17;;;;;;;7.10;5.30;;;5.80;58.30;;;;;;5027489;28;20045;-44
2023/04/26 05:27:51;;;;;;;7.90;5.38;;;5.90;58.50;;;;;;5050552;28;20110;-44
2023/04/26 05:30:45;;;;;;;12.52;6.13;;;5.90;58.50;;;;;;5016115;28;20080;-44
2023/04/26 05:33:18;;;;;;;11.07;5.30;;;6.00;58.50;;;;;;5052256;28;20412;-45
2023/04/26 05:35:51;;;;;;;9.43;6.50;;;6.10;58.50;;;;;;5056971;28;20056;-46
2023/04/26 05:38:23;;;;;;;10.00;6.38;;;6.10;58.60;;;;;;5028935;28;20420;-47
2023/04/26 05:40:50;;;;;;;9.65;6.32;;;6.20;58.80;;;;;;5028017;28;20060;-46
2023/04/26 05:43:16;;;;;;;12.55;6.97;;;6.20;58.80;;;;;;5028453;28;20111;-44
2023/04/26 05:45:53;;;;;;;12.93;6.80;;;6.30;59.00;;;;;;5036173;28;20046;-45
2023/04/26 05:48:21;;;;;;;13.90;6.93;;;6.40;60.00;;;;;;5035995;28;20061;-44
2023/04/26 05:50:49;;;;;;;13.40;7.35;;;6.40;59.50;;;;;;5033948;28;20103;-47
2023/04/26 05:53:16;;;;;;;11.18;6.20;;;6.50;59.60;;;;;;5030689;28;20126;-44
2023/04/26 05:55:43;;;;;;;10.60;7.28;;;6.60;59.80;;;;;;5035857;28;20544;-43
2023/04/26 05:58:10;;;;;;;11.82;5.72;;;6.70;59.80;;;;;;5030728;28;20041;-45
2023/04/26 06:00:38;;;;;;;13.70;7.07;;;6.70;59.90;;;;;;5022094;28;20050;-44
2023/04/26 06:03:06;;;;;;;10.05;6.95;;;6.90;60.10;;;;;;5040774;28;20045;-43
2023/04/26 06:05:33;;;;;;;13.13;7.15;;;7.00;60.50;;;;;;5013052;28;20111;-44
2023/04/26 06:08:00;;;;;;;11.45;6.45;;;7.00;60.60;;;;;;5035666;28;20049;-44
2023/04/26 06:10:28;;;;;;;11.57;6.72;;;7.20;60.70;;;;;;5035875;28;20095;-45
2023/04/26 06:12:54;;;;;;;14.02;6.82;;;7.30;60.70;;;;;;5024585;28;20045;-45
2023/04/26 06:15:22;;;;;;;9.27;7.18;;;7.40;60.60;;;;;;5018402;28;20041;-48
2023/04/26 06:17:49;;;;;;;12.55;7.20;;;7.50;60.70;;;;;;5030028;28;20136;-48
2023/04/26 06:20:15;;;;;;;10.30;6.85;;;7.60;60.80;;;;;;5031862;28;20048;-49
2023/04/26 06:22:42;;;;;;;15.80;7.13;;;7.70;60.90;;;;;;5042690;28;20501;-45
2023/04/26 06:25:11;;;;;;;11.38;7.03;;;7.80;60.90;;;;;;5029946;28;20099;-44
2023/04/26 06:27:38;;;;;;;11.43;6.82;;;7.90;60.80;;;;;;5015244;28;20312;-46
2023/04/26 06:30:06;;;;;;;9.30;6.78;;;8.00;60.60;;;;;;5030094;28;20045;-48
2023/04/26 06:32:35;;;;;;;14.38;7.00;;;8.10;60.70;;;;;;5019660;28;20649;-44
2023/04/26 06:35:02;;;;;;;9.52;6.45;;;8.20;60.70;;;;;;5040947;28;20053;-46
2023/04/26 06:37:29;;;;;;;11.82;6.93;;;8.30;60.70;;;;;;5045515;28;20051;-45
2023/04/26 06:39:57;;;;;;;13.65;6.88;;;8.30;60.40;;;;;;5052971;28;20382;-47
2023/04/26 06:42:25;;;;;;;10.70;6.70;;;8.40;60.30;;;;;;5040097;28;20060;-47
2023/04/26 06:45:18;;;;;;;10.55;6.72;;;8.50;60.30;;;;;;5043443;28;20034;-45
2023/04/26 06:47:45;;;;;;;13.02;6.50;;;8.70;60.10;;;;;;5034788;28;20056;-47
2023/04/26 06:50:12;;;;;;;10.32;6.47;;;8.70;59.90;;;;;;5045223;28;20030;-45
2023/04/26 06:52:39;;;;;;;12.20;6.65;;;8.90;60.10;;;;;;5067399;22;20053;-44
2023/04/26 06:55:06;;;;;;;10.40;5.45;;;8.90;60.10;;;;;;5040126;28;20044;-45
2023/04/26 06:57:32;;;;;;;9.57;6.28;;;9.10;59.90;;;;;;5037944;28;20045;-44
2023/04/26 06:59:59;;;;;;;11.82;5.97;;;9.20;59.80;;;;;;5046539;28;20724;-46
2023/04/26 07:02:26;;;;;;;9.10;5.65;;;9.30;59.40;;;;;;5044548;28;20036;-46
2023/04/26 07:04:52;;;;;;;12.40;6.57;;;9.40;59.10;;;;;;5051708;28;20060;-45
2023/04/26 07:07:20;;;;;;;9.25;5.97;;;9.50;59.10;;;;;;5032805;28;20049;-45
2023/04/26 07:09:46;;;;;;;10.48;5.88;;;9.50;59.10;;;;;;5044848;28;20043;-44
2023/04/26 07:12:13;;;;;;;8.30;5.75;;;9.60;58.70;;;;;;5051280;28;20129;-45
2023/04/26 07:14:42;;;;;;;9.82;5.60;;;9.80;58.60;;;;;;5045497;28;20049;-46
2023/04/26 07:17:09;;;;;;;9.48;5.32;;;9.80;58.20;;;;;;5050980;28;20120;-45
2023/04/26 07:19:36;;;;;;;8.50;5.95;;;9.90;58.60;;;;;;5051828;28;20045;-46
2023/04/26 07:22:03;;;;;;;9.23;5.75;;;10.00;57.90;;;;;;5049125;28;20116;-49
2023/04/26 07:24:30;;;;;;;10.73;5.53;;;10.10;58.00;;;;;;5049973;28;20127;-48
2023/04/26 07:26:57;;;;;;;9.10;5.65;;;10.10;58.20;;;;;;5050904;28;20037;-49
2023/04/26 07:29:23;;;;;;;5.78;4.82;;;10.20;58.00;;;;;;5045688;28;20040;-47
2023/04/26 07:31:53;;;;;;;9.27;5.50;;;10.30;57.70;;;;;;5050149;28;20128;-45
2023/04/26 07:34:19;;;;;;;10.02;5.43;;;10.40;57.60;;;;;;5051875;28;20378;-47
2023/04/26 07:36:47;;;;;;;9.13;5.43;;;10.40;57.20;;;;;;5042608;28;20094;-46
2023/04/26 07:39:14;;;;;;;8.35;5.28;;;10.50;57.10;;;;;;5045627;28;20033;-48
2023/04/26 07:41:41;;;;;;;9.23;5.18;;;10.50;57.00;;;;;;5050356;28;20045;-45
2023/04/26 07:44:10;;;;;;;9.00;5.53;;;10.60;56.80;;;;;;5051903;28;20060;-48
2023/04/26 07:46:39;;;;;;;10.07;5.07;;;10.70;56.90;;;;;;5048816;28;20041;-48
2023/04/26 07:49:07;;;;;;;8.43;5.88;;;10.70;56.50;;;;;;5045060;28;20041;-46
2023/04/26 07:51:36;;;;;;;11.25;5.88;;;10.80;56.00;;;;;;5049505;28;20076;-45
2023/04/26 07:54:02;;;;;;;8.63;6.68;;;10.90;55.80;;;;;;5051050;28;20037;-47
2023/04/26 07:56:29;;;;;;;10.98;6.28;;;11.00;55.90;;;;;;5046732;28;20476;-50
2023/04/26 07:58:55;;;;;;;10.30;6.88;;;11.00;55.70;;;;;;5045979;28;20041;-46
2023/04/26 08:01:22;;;;;;;8.23;5.57;;;11.10;55.90;;;;;;5050425;28;20056;-45
2023/04/26 08:03:49;;;;;;;8.73;6.38;;;11.20;55.30;;;;;;5043178;28;20492;-45
2023/04/26 08:06:16;;;;;;;13.85;8.02;;;11.20;54.90;;;;;;5049287;28;20048;-49
2023/04/26 08:08:48;;;;;;;8.75;7.25;;;11.30;54.80;;;;;;5047318;28;20048;-47
2023/04/26 08:11:14;;;;;;;24.08;18.95;;;11.30;54.80;;;;;;5050227;28;20041;-46
2023/04/26 08:13:45;;;;;;;21.27;18.63;;;11.40;54.50;;;;;;5047262;28;20540;-45
2023/04/26 08:16:11;;;;;;;18.58;15.40;;;11.40;54.20;;;;;;5045718;28;20055;-46
2023/04/26 08:18:38;;;;;;;17.10;11.52;;;11.40;54.00;;;;;;5050423;28;20037;-50
2023/04/26 08:21:05;;;;;;;16.90;10.13;;;11.50;54.00;;;;;;5050048;28;20041;-49
2023/04/26 08:23:36;;;;;;;15.30;9.23;;;11.50;53.50;;;;;;5037773;28;20220;-48
2023/04/26 08:26:03;;;;;;;14.75;8.10;;;11.50;53.80;;;;;;5049490;28;20047;-50
2023/04/26 08:28:29;;;;;;;10.95;6.30;;;11.60;53.30;;;;;;5043639;28;20540;-46
2023/04/26 08:30:56;;;;;;;8.50;6.47;;;11.60;53.50;;;;;;5049411;28;20041;-48
2023/04/26 08:33:25;;;;;;;10.32;6.43;;;11.70;53.30;;;;;;5049593;28;20150;-47
2023/04/26 08:35:54;;;;;;;8.88;3.47;;;11.80;53.10;;;;;;5048361;28;20069;-43
2023/04/26 08:38:24;;;;;;;7.40;4.65;;;11.90;52.70;;;;;;5048546;28;20040;-49
2023/04/26 08:40:50;;;;;;;10.20;4.05;;;11.90;52.50;;;;;;5041301;28;20033;-44
2023/04/26 08:43:17;;;;;;;6.88;4.80;;;12.00;52.40;;;;;;5050054;28;20067;-46
2023/04/26 08:45:47;;;;;;;9.57;5.20;;;12.10;52.10;;;;;;5047681;28;20115;-47
2023/04/26 08:48:16;;;;;;;6.93;5.35;;;12.10;52.10;;;;;;5046696;28;20374;-46
2023/04/26 08:50:45;;;;;;;6.03;4.95;;;12.20;51.70;;;;;;5048716;28;20493;-47
2023/04/26 08:53:18;;;;;;;10.63;5.88;;;12.20;51.80;;;;;;5049820;28;20409;-46
2023/04/26 08:55:48;;;;;;;8.27;5.32;;;12.20;51.50;;;;;;5026181;28;20052;-44
2023/04/26 08:58:15;;;;;;;5.97;4.45;;;12.30;51.20;;;;;;5045103;28;20036;-45
2023/04/26 09:00:47;;;;;;;10.48;5.05;;;12.30;51.00;;;;;;5047608;28;20413;-47
2023/04/26 09:03:16;;;;;;;5.07;4.03;;;12.30;50.90;;;;;;5049883;28;20064;-45
2023/04/26 09:05:44;;;;;;;11.07;5.07;;;12.40;50.80;;;;;;5048990;28;20041;-49
2023/04/26 09:08:18;;;;;;;6.45;4.90;;;12.40;50.70;;;;;;5047693;28;20540;-45
2023/04/26 09:10:45;;;;;;;7.93;5.68;;;12.40;50.90;;;;;;5048387;28;20068;-50
2023/04/26 09:13:13;;;;;;;5.90;4.65;;;12.50;50.70;;;;;;5046978;28;20063;-46
2023/04/26 09:15:40;;;;;;;10.63;5.90;;;12.60;50.70;;;;;;5048862;28;20544;-45
2023/04/26 09:18:18;;;;;;;11.02;4.78;;;12.60;50.60;;;;;;5049404;28;20501;-47
2023/04/26 09:20:45;;;;;;;7.75;4.95;;;12.80;50.10;;;;;;5049277;28;20094;-47
2023/04/26 09:23:11;;;;;;;7.32;4.35;;;12.90;50.30;;;;;;5046639;28;20508;-47
2023/04/26 09:25:38;;;;;;;5.85;4.32;;;13.00;50.40;;;;;;5046229;28;20052;-47
2023/04/26 09:28:20;;;;;;;8.15;4.30;;;13.10;49.30;;;;;;5046656;28;20037;-48
2023/04/26 09:30:47;;;;;;;5.80;4.20;;;13.20;47.70;;;;;;5048257;28;20471;-44
2023/04/26 09:33:13;;;;;;;9.10;4.22;;;13.20;48.10;;;;;;5049678;28;20033;-45
2023/04/26 09:35:43;;;;;;;6.28;4.35;;;13.20;48.00;;;;;;5047726;28;20033;-44
2023/04/26 09:38:15;;;;;;;9.25;4.70;;;13.20;47.80;;;;;;5043667;28;20036;-43
2023/04/26 09:40:44;;;;;;;7.10;5.20;;;13.20;48.00;;;;;;5048398;28;20095;-46
2023/04/26 09:43:21;;;;;;;5.45;4.88;;;13.20;47.80;;;;;;5048305;28;20047;-48
2023/04/26 09:45:52;;;;;;;8.18;5.72;;;13.20;47.80;;;;;;5044100;28;20459;-44
2023/04/26 09:48:24;;;;;;;10.73;6.63;;;13.30;47.70;;;;;;5049311;28;20485;-43
2023/04/26 09:50:54;;;;;;;10.27;6.57;;;13.30;47.60;;;;;;5048388;28;20064;-45
2023/04/26 09:53:30;;;;;;;11.85;7.18;;;13.30;47.90;;;;;;5048062;28;20055;-43
2023/04/26 09:56:07;;;;;;;8.98;7.38;;;13.40;48.40;;;;;;5045307;28;20760;-47
2023/04/26 09:58:38;;;;;;;9.88;6.38;;;13.40;47.80;;;;;;5048478;28;20043;-48
2023/04/26 10:01:07;;;;;;;7.78;5.75;;;13.50;48.50;;;;;;5052560;28;20045;-45
2023/04/26 10:03:35;;;;;;;10.52;5.75;;;13.70;48.50;;;;;;5053512;28;20041;-46
2023/04/26 10:06:06;;;;;;;9.73;6.40;;;13.80;48.80;;;;;;5052537;28;20477;-43
2023/04/26 10:08:34;;;;;;;6.78;6.10;;;13.90;47.10;;;;;;5048857;28;20138;-45
2023/04/26 10:11:04;;;;;;;8.57;6.05;;;14.00;47.10;;;;;;5052509;28;20033;-48
2023/04/26 10:13:31;;;;;;;8.15;4.80;;;14.00;46.70;;;;;;5049840;28;20044;-48
2023/04/26 10:16:03;;;;;;;6.25;4.10;;;14.10;46.50;;;;;;5052473;28;20558;-44
2023/04/26 10:18:30;;;;;;;5.22;4.63;;;14.10;46.40;;;;;;5052760;28;20041;-45
2023/04/26 10:21:12;;;;;;;8.15;4.55;;;14.10;46.00;;;;;;5044368;28;20052;-45
2023/04/26 10:23:40;;;;;;;7.95;4.22;;;14.10;45.50;;;;;;5048534;28;20071;-42
2023/04/26 10:26:26;;;;;;;7.20;4.68;;;14.20;45.90;;;;;;5052364;28;20055;-46
2023/04/26 10:28:54;;;;;;;5.18;4.10;;;14.20;45.50;;;;;;5046507;28;20044;-48
2023/04/26 10:32:04;;;;;;;6.90;4.78;;;14.20;45.70;;;;;;5051749;28;20528;-43
2023/04/26 10:34:32;;;;;;;6.25;5.13;;;14.20;45.50;;;;;;5053381;28;20029;-43
2023/04/26 10:37:11;;;;;;;9.45;5.20;;;14.40;45.50;;;;;;5049758;28;20497;-43
2023/04/26 10:39:42;;;;;;;5.40;4.47;;;14.50;44.70;;;;;;5050831;28;20037;-43
2023/04/26 10:42:24;;;;;;;4.50;4.07;;;14.60;45.00;;;;;;5052053;28;20041;-44
2023/04/26 10:44:59;;;;;;;3.22;2.90;;;14.80;44.30;;;;;;5052905;28;20088;-46
2023/04/26 10:47:30;;;;;;;4.22;2.63;;;15.00;43.50;;;;;;5049242;28;20055;-46
2023/04/26 10:50:08;;;;;;;3.88;2.53;;;15.10;44.50;;;;;;5050801;28;20072;-44
2023/04/26 10:53:04;;;;;;;3.28;2.53;;;15.30;42.70;;;;;;5048730;28;20047;-44
2023/04/26 10:55:42;;;;;;;3.28;2.97;;;15.40;42.30;;;;;;5046527;28;20049;-48
2023/04/26 10:58:31;;;;;;;5.47;2.40;;;15.50;42.30;;;;;;5047413;28;20037;-47
2023/04/26 11:01:29;;;;;;;3.88;2.38;;;15.60;41.90;;;;;;5051335;28;20049;-45
2023/04/26 11:03:55;;;;;;;2.67;2.03;;;15.80;42.00;;;;;;5040092;28;20053;-47
2023/04/26 11:06:46;;;;;;;3.95;2.65;;;15.80;42.60;;;;;;5051337;28;20400;-43
2023/04/26 11:09:32;;;;;;;3.90;2.30;;;15.90;42.10;;;;;;5043872;28;20041;-45
2023/04/26 11:11:58;;;;;;;6.72;2.00;;;15.90;41.50;;;;;;5051391;28;20041;-44
2023/04/26 11:14:25;;;;;;;4.63;2.55;;;15.90;41.40;;;;;;5047638;28;20699;-45
2023/04/26 11:16:52;;;;;;;4.82;2.13;;;15.90;41.80;;;;;;5051102;28;20045;-45
2023/04/26 11:19:19;;;;;;;6.10;2.00;;;15.90;41.40;;;;;;5052260;28;20044;-46
2023/04/26 11:21:45;;;;;;;3.63;2.35;;;16.00;41.60;;;;;;5046970;28;20057;-48
2023/04/26 11:24:14;;;;;;;4.15;1.95;;;16.00;41.80;;;;;;5050944;28;20045;-47
2023/04/26 11:26:50;;;;;;;4.00;2.20;;;16.00;41.10;;;;;;5048905;28;20045;-45
2023/04/26 11:29:23;;;;;;;6.03;2.08;;;15.90;41.70;;;;;;5043534;28;20044;-45
2023/04/26 11:31:54;;;;;;;4.07;2.60;;;15.90;41.70;;;;;;5050266;28;20136;-44
2023/04/26 11:34:34;;;;;;;4.00;2.33;;;15.90;41.70;;;;;;5052029;28;20049;-44
2023/04/26 11:37:02;;;;;;;6.10;1.83;;;15.80;41.70;;;;;;5049709;28;20048;-43
2023/04/26 11:39:36;;;;;;;4.03;1.95;;;15.80;41.30;;;;;;5047393;28;20072;-47
2023/04/26 11:42:12;;;;;;;3.85;2.08;;;15.80;40.40;;;;;;5049460;28;20067;-48
2023/04/26 11:44:39;;;;;;;3.25;2.30;;;15.80;40.80;;;;;;5051684;28;20049;-47
2023/04/26 11:47:07;;;;;;;7.32;2.50;;;15.80;41.30;;;;;;5046377;28;20513;-46
2023/04/26 11:49:37;;;;;;;5.78;2.28;;;15.80;40.80;;;;;;5051520;28;20041;-47
2023/04/26 11:52:07;;;;;;;3.42;2.22;;;15.80;40.90;;;;;;5050735;28;20057;-46
2023/04/26 11:54:36;;;;;;;7.07;2.05;;;15.80;41.00;;;;;;5045408;28;20049;-45
2023/04/26 11:57:13;;;;;;;3.30;2.40;;;15.90;41.10;;;;;;5049783;28;20413;-47
2023/04/26 11:59:43;;;;;;;3.08;2.65;;;15.90;41.10;;;;;;5043113;28;20075;-44
2023/04/26 12:02:10;;;;;;;4.68;2.75;;;16.00;41.60;;;;;;5050118;28;20061;-44
2023/04/26 12:04:39;;;;;;;5.22;2.42;;;16.00;41.20;;;;;;5051406;28;20087;-46
2023/04/26 12:07:07;;;;;;;4.97;1.95;;;16.00;41.30;;;;;;5040578;28;20115;-43
2023/04/26 12:09:34;;;;;;;5.32;2.28;;;16.00;41.40;;;;;;5046673;28;20051;-45
2023/04/26 12:12:03;;;;;;;3.85;2.53;;;16.10;41.20;;;;;;5050072;28;20438;-46
2023/04/26 12:14:34;;;;;;;4.40;2.30;;;16.20;40.40;;;;;;5046059;28;20045;-47
2023/04/26 12:17:02;;;;;;;4.55;2.80;;;16.30;40.10;;;;;;5049937;28;20087;-45
2023/04/26 12:19:33;;;;;;;5.40;2.70;;;16.30;39.80;;;;;;5050594;28;20475;-47
2023/04/26 12:22:00;;;;;;;4.25;2.88;;;16.40;39.80;;;;;;5046489;28;20041;-48
2023/04/26 12:24:32;;;;;;;3.65;2.40;;;16.50;39.80;;;;;;5051962;28;20045;-48
2023/04/26 12:27:01;;;;;;;3.25;2.42;;;16.60;39.20;;;;;;5050291;28;20045;-48
2023/04/26 12:29:31;;;;;;;5.03;2.55;;;16.70;39.30;;;;;;5043920;28;20049;-45
2023/04/26 12:32:01;;;;;;;4.80;2.88;;;16.80;39.20;;;;;;5049360;28;20052;-47
2023/04/26 12:34:27;;;;;;;4.55;2.80;;;16.80;38.60;;;;;;5049312;28;20041;-46
2023/04/26 12:36:56;;;;;;;3.03;2.58;;;16.80;38.60;;;;;;5049631;28;20037;-45
2023/04/26 12:39:25;;;;;;;3.83;2.55;;;16.80;38.90;;;;;;5047562;28;20400;-45
2023/04/26 12:41:52;;;;;;;4.10;2.25;;;16.80;38.70;;;;;;5049424;28;20045;-45
2023/04/26 12:44:18;;;;;;;4.40;2.50;;;16.80;39.30;;;;;;5050703;28;20051;-46
2023/04/26 12:46:48;;;;;;;5.88;2.60;;;16.80;39.30;;;;;;5046876;28;20541;-44
2023/04/26 12:49:14;;;;;;;2.60;2.40;;;16.80;39.20;;;;;;5047660;28;20048;-49
2023/04/26 12:51:41;;;;;;;4.72;2.22;;;16.70;38.60;;;;;;5049027;28;20063;-47
2023/04/26 12:54:08;;;;;;;3.33;2.22;;;16.80;38.30;;;;;;5049057;28;20049;-48
2023/04/26 12:56:37;;;;;;;3.10;2.78;;;16.80;38.70;;;;;;5046302;28;20053;-45
2023/04/26 12:59:04;;;;;;;4.30;2.92;;;16.80;38.30;;;;;;5059561;22;20049;-43
2023/04/26 13:01:30;;;;;;;4.38;2.40;;;16.90;38.60;;;;;;5037694;28;20045;-45
2023/04/26 13:03:59;;;;;;;2.90;1.85;;;17.10;38.10;;;;;;5032180;28;20037;-42